Orofino, ID

10:58 PM PDT on August 19, 2014 (GMT -0700)
ITD Top of Greer Grade ID US | Change Station
CLOSE
Current Station
Personal Weather Station
Location: Weippe, ID
Elevation: 3111 ft
Nearby Weather Stations

Elev 3111 ft 46.38 °N, 116.13 °W | Updated 43 minutes ago

Overcast
Overcast
75 °F
Feels Like 77 °F
N
6
Wind Variable Wind from NNW
Gusts 9.0 mph

Today
High -- | Low -- °F
--% Chance of Precip.
Yesterday
High -- | Low -- °F
Precip. -- in
5:48 AM 7:47 PM
Waning Crescent, 24% visible
Pressure 29.84 in
Visibility 10.0 miles
Clouds Overcast 9000 ft
Heat Index 77 °F
Dew Point 42 °F
Humidity 30%
Rainfall 0.00 in
Snow Depth Not available.
UV 0 out of 12
Pollen 7.30 out of 12
Air Quality Not available.
Flu Activity Not available.
METAR KGIC 200555Z AUTO 12004KT 10SM OVC090 20/05 A2984 RMK AO1 T02010045 10356 20088

More Conditions Fewer Conditions

Pressure 29.84 in
Visibility 10.0 miles
Clouds Overcast 9000 ft
Heat Index 77 °F
Dew Point 42 °F
Humidity 30%
Rainfall 0.00 in
Snow Depth Not available.
UV 0 out of 12
Pollen 7.30 out of 12
Air Quality Not available.
Flu Activity Not available.
METAR KGIC 200555Z AUTO 12004KT 10SM OVC090 20/05 A2984 RMK AO1 T02010045 10356 20088

More Conditions Fewer Conditions

10-Day Weather Forecast

Almanac

Astronomy

Aug. 19, 2014 Rise Set
Actual Time 5:48 AM PDT 7:47 PM PDT
Civil Twilight 5:15 AM PDT 8:19 PM PDT
Nautical Twilight 4:35 AM PDT 8:59 PM PDT
Astronomical Twilight 3:50 AM PDT 9:43 PM PDT
Moon 12:37 AM PDT (8/19) 3:53 PM PDT (8/19)
Length of Visible Light 15h 04m
Length of Day
13h 59m
Tomorrow will be 3m 2s shorter.
Waning Crescent, 24% of the Moon is Illuminated
Aug 20
Waning Crescent
Aug 25
New
Sep 2
First Quarter
Sep 8
Full
Sep 15
Last Quarter

Yesterday's Extremes

State Highs State Lows

Community

WunderPhotos

Upload Photos

1,745,592 photos uploaded!

Nearby

Snow Depth

Station Depth Elevation
Sherwin 0 in 3200 ft
Lost Lake 0 in 6110 ft
Moscow Mountain 0 in 4700 ft
Mica Creek 0 in 4750 ft
Savage Pass 1 in 6170 ft

Earthquake Activity

City Distance Mag. Time & Date
No recent earthquake activity has been reported nearby.
Minimum magnitude displayed is 2.5.

Coastal Water Temperatures

Place Temperature
No Stations Reporting

Nearby Weather Stations